createdAt,value
2022-10-07T00:01:08.081Z,5.08
2022-10-07T00:06:12.139Z,5.15
2022-10-07T00:11:15.310Z,5.15
2022-10-07T00:16:18.108Z,5.16
2022-10-07T00:21:16.775Z,5.16
2022-10-07T00:26:14.774Z,5.10
2022-10-07T00:31:17.275Z,5.11
2022-10-07T00:36:17.784Z,5.12
2022-10-07T00:41:20.798Z,5.14
2022-10-07T00:46:35.148Z,5.05
2022-10-07T00:51:34.091Z,4.95
2022-10-07T00:56:31.293Z,4.95
2022-10-07T01:01:27.994Z,4.86
2022-10-07T01:06:24.661Z,4.79
2022-10-07T01:11:52.079Z,4.77
2022-10-07T01:17:23.662Z,4.73
2022-10-07T01:22:50.839Z,4.50
2022-10-07T01:28:00.718Z,4.57
2022-10-07T01:33:02.974Z,4.47
2022-10-07T01:38:04.479Z,4.48
2022-10-07T01:43:01.506Z,4.48
2022-10-07T01:47:59.034Z,4.39
2022-10-07T01:53:15.294Z,4.37
2022-10-07T01:58:18.542Z,4.39
2022-10-07T02:04:14.777Z,4.40
2022-10-07T02:09:35.778Z,4.43
2022-10-07T02:14:46.101Z,4.36
2022-10-07T02:19:48.276Z,4.42
2022-10-07T02:24:47.723Z,4.28
2022-10-07T02:29:47.747Z,4.35
2022-10-07T02:34:46.116Z,4.46
2022-10-07T02:39:43.594Z,4.32
2022-10-07T02:45:06.234Z,4.35
2022-10-07T02:50:07.784Z,4.24
2022-10-07T02:55:08.239Z,4.13
2022-10-07T03:00:10.909Z,4.11
2022-10-07T03:05:09.282Z,4.22
2022-10-07T03:10:08.959Z,4.17
2022-10-07T03:15:05.914Z,4.02
2022-10-07T03:20:02.274Z,3.99
2022-10-07T03:24:58.654Z,3.99
2022-10-07T03:29:55.658Z,4.03
2022-10-07T03:34:52.929Z,4.22
2022-10-07T03:39:50.069Z,4.15
2022-10-07T03:44:50.060Z,4.21
2022-10-07T03:49:46.418Z,4.14
2022-10-07T03:54:43.516Z,4.09
2022-10-07T03:59:40.808Z,4.12
2022-10-07T04:04:37.858Z,4.15
2022-10-07T04:09:34.202Z,4.30
2022-10-07T04:14:30.546Z,4.33
2022-10-07T04:19:26.914Z,4.35
2022-10-07T04:24:23.461Z,4.28
2022-10-07T04:29:19.968Z,4.25
2022-10-07T04:34:16.339Z,4.28
2022-10-07T04:39:13.339Z,4.29
2022-10-07T04:44:09.793Z,4.37
2022-10-07T04:49:06.170Z,4.38
2022-10-07T04:54:02.727Z,4.48
2022-10-07T04:58:59.101Z,4.60
2022-10-07T05:03:55.479Z,4.85
2022-10-07T05:08:54.189Z,5.05
2022-10-07T05:13:52.402Z,5.25
2022-10-07T05:18:48.805Z,5.39
2022-10-07T05:23:45.602Z,5.44
2022-10-07T05:28:44.052Z,5.44
2022-10-07T05:33:41.366Z,5.57
2022-10-07T05:38:38.265Z,5.60
2022-10-07T05:43:38.253Z,5.66
2022-10-07T05:48:39.202Z,5.68
2022-10-07T05:53:36.753Z,5.78
2022-10-07T05:58:35.837Z,5.77
2022-10-07T06:03:33.377Z,5.90
2022-10-07T06:08:29.882Z,6.23
2022-10-07T06:13:26.273Z,6.51
2022-10-07T06:18:22.733Z,6.80
2022-10-07T06:23:19.103Z,7.27
2022-10-07T06:28:17.343Z,7.66
2022-10-07T06:33:13.888Z,7.77
2022-10-07T06:38:10.301Z,7.93
2022-10-07T06:43:06.654Z,7.77
2022-10-07T06:48:03.045Z,7.71
2022-10-07T06:52:59.933Z,7.73
2022-10-07T06:57:56.437Z,8.01
2022-10-07T07:02:52.794Z,8.21
2022-10-07T07:07:49.620Z,8.63
2022-10-07T07:12:46.737Z,8.88
2022-10-07T07:17:43.722Z,9.00
2022-10-07T07:22:41.372Z,9.22
2022-10-07T07:27:37.775Z,9.47
2022-10-07T07:32:34.108Z,9.90
2022-10-07T07:37:31.660Z,10.01
2022-10-07T07:42:28.088Z,10.06
2022-10-07T07:47:24.548Z,10.34
2022-10-07T07:52:20.917Z,10.65
2022-10-07T07:57:17.332Z,11.05
2022-10-07T08:02:13.732Z,11.17
2022-10-07T08:07:13.111Z,11.18
2022-10-07T08:12:09.464Z,11.44
2022-10-07T08:17:05.802Z,11.65
2022-10-07T08:22:02.189Z,11.69
2022-10-07T08:26:58.614Z,11.73
2022-10-07T08:31:55.025Z,12.05
2022-10-07T08:36:52.351Z,12.23
2022-10-07T08:42:13.516Z,12.42
2022-10-07T08:47:13.220Z,12.74
2022-10-07T08:52:25.185Z,13.07
2022-10-07T08:57:42.731Z,12.98
2022-10-07T09:03:08.760Z,13.07
2022-10-07T09:08:14.265Z,13.45
2022-10-07T09:13:20.054Z,13.12
2022-10-07T09:18:20.156Z,13.21
2022-10-07T09:23:16.607Z,13.24
2022-10-07T09:28:16.342Z,13.58
2022-10-07T09:33:20.027Z,14.14
2022-10-07T09:38:42.803Z,14.45
2022-10-07T09:43:43.103Z,14.16
2022-10-07T09:48:52.716Z,14.28
2022-10-07T09:54:04.673Z,14.10
2022-10-07T09:59:20.565Z,14.27
2022-10-07T10:04:19.612Z,14.52
2022-10-07T10:09:23.908Z,14.63
2022-10-07T10:14:29.098Z,14.71
2022-10-07T10:19:27.365Z,14.90
2022-10-07T10:24:43.385Z,14.91
2022-10-07T10:29:55.345Z,15.40
2022-10-07T10:35:30.889Z,15.14
2022-10-07T10:40:36.256Z,15.40
2022-10-07T10:46:08.863Z,15.40
2022-10-07T10:51:13.384Z,15.53
2022-10-07T10:56:20.288Z,15.12
2022-10-07T11:01:29.219Z,14.76
2022-10-07T11:06:28.520Z,15.25
2022-10-07T11:11:26.641Z,15.63
2022-10-07T11:16:30.844Z,15.61
2022-10-07T11:21:37.938Z,15.67
2022-10-07T11:26:43.775Z,15.65
2022-10-07T11:31:44.547Z,15.42
2022-10-07T11:36:56.702Z,15.60
2022-10-07T11:42:07.829Z,15.82
2022-10-07T11:47:11.160Z,15.58
2022-10-07T11:52:18.231Z,15.96
2022-10-07T11:57:31.632Z,16.07
2022-10-07T12:02:28.111Z,16.20
2022-10-07T12:07:33.500Z,16.35
2022-10-07T12:12:42.520Z,16.38
2022-10-07T12:17:54.125Z,15.89
2022-10-07T12:23:22.458Z,15.94
2022-10-07T12:28:24.009Z,16.23
2022-10-07T12:33:37.523Z,16.37
2022-10-07T12:38:33.842Z,16.73
2022-10-07T12:43:47.949Z,16.40
2022-10-07T12:49:08.796Z,16.58
2022-10-07T12:54:16.303Z,16.74
2022-10-07T12:59:37.577Z,16.57
2022-10-07T13:04:36.691Z,16.50
2022-10-07T13:10:16.427Z,16.33
2022-10-07T13:15:26.625Z,16.45
2022-10-07T13:20:34.599Z,16.75
2022-10-07T13:25:31.656Z,16.74
2022-10-07T13:30:41.097Z,16.86
2022-10-07T13:35:39.641Z,16.50
2022-10-07T13:40:36.400Z,16.73
2022-10-07T13:45:41.102Z,16.83
2022-10-07T13:50:37.994Z,16.79
2022-10-07T13:55:35.908Z,16.68
2022-10-07T14:00:33.248Z,16.50
2022-10-07T14:05:31.297Z,16.60
2022-10-07T14:10:29.224Z,16.73
2022-10-07T14:15:35.288Z,16.80
2022-10-07T14:20:48.948Z,16.64
2022-10-07T14:25:48.046Z,16.67
2022-10-07T14:31:05.512Z,17.07
2022-10-07T14:36:20.272Z,17.34
2022-10-07T14:41:21.921Z,17.16
2022-10-07T14:46:21.582Z,16.89
2022-10-07T14:51:24.438Z,16.90
2022-10-07T14:56:31.316Z,16.92
2022-10-07T15:01:29.691Z,16.75
2022-10-07T15:06:26.327Z,16.61
2022-10-07T15:11:22.722Z,16.57
2022-10-07T15:16:26.157Z,16.66
2022-10-07T15:21:23.193Z,16.72
2022-10-07T15:26:23.474Z,16.79
2022-10-07T15:31:19.969Z,16.68
2022-10-07T15:36:17.835Z,16.47
2022-10-07T15:41:36.986Z,16.23
2022-10-07T15:46:34.644Z,15.96
2022-10-07T15:51:31.699Z,15.94
2022-10-07T15:56:28.441Z,15.81
2022-10-07T16:01:28.074Z,15.57
2022-10-07T16:06:26.715Z,15.45
2022-10-07T16:11:24.247Z,15.54
2022-10-07T16:16:23.813Z,15.72
2022-10-07T16:21:22.613Z,16.07
2022-10-07T16:26:21.415Z,16.10
2022-10-07T16:31:17.895Z,15.57
2022-10-07T16:36:15.507Z,15.09
2022-10-07T16:41:12.002Z,14.70
2022-10-07T16:46:13.428Z,14.23
2022-10-07T16:51:11.762Z,13.83
2022-10-07T16:56:08.584Z,13.38
2022-10-07T17:01:09.760Z,13.03
2022-10-07T17:06:08.168Z,12.68
2022-10-07T17:11:05.286Z,12.38
2022-10-07T17:16:01.666Z,12.12
2022-10-07T17:20:59.315Z,11.92
2022-10-07T17:25:56.074Z,11.62
2022-10-07T17:30:52.599Z,11.29
2022-10-07T17:35:49.075Z,11.14
2022-10-07T17:40:45.729Z,10.96
2022-10-07T17:45:42.095Z,10.79
2022-10-07T17:50:39.087Z,10.56
2022-10-07T17:55:35.423Z,10.31
2022-10-07T18:00:32.124Z,10.13
2022-10-07T18:05:28.778Z,10.05
2022-10-07T18:10:25.818Z,9.88
2022-10-07T18:15:23.321Z,9.73
2022-10-07T18:20:21.746Z,9.61
2022-10-07T18:25:18.014Z,9.46
2022-10-07T18:30:14.482Z,9.37
2022-10-07T18:35:10.972Z,9.34
2022-10-07T18:40:07.767Z,9.24
2022-10-07T18:45:04.636Z,9.06
2022-10-07T18:50:01.057Z,8.94
2022-10-07T18:54:57.456Z,8.78
2022-10-07T18:59:53.969Z,8.71
2022-10-07T19:04:50.327Z,8.50
2022-10-07T19:09:46.652Z,8.48
2022-10-07T19:14:43.180Z,8.46
2022-10-07T19:19:40.861Z,8.38
2022-10-07T19:24:56.148Z,8.33
2022-10-07T19:29:52.649Z,8.19
2022-10-07T19:34:48.964Z,8.08
2022-10-07T19:39:45.488Z,8.01
2022-10-07T19:44:41.856Z,7.84
2022-10-07T19:49:38.409Z,7.75
2022-10-07T19:54:36.223Z,7.67
2022-10-07T19:59:32.563Z,7.58
2022-10-07T20:04:28.947Z,7.54
2022-10-07T20:09:25.520Z,7.41
2022-10-07T20:14:22.064Z,7.34
2022-10-07T20:19:19.560Z,7.17
2022-10-07T20:24:17.015Z,6.98
2022-10-07T20:29:16.123Z,6.96
2022-10-07T20:34:15.773Z,7.03
2022-10-07T20:39:34.143Z,7.05
2022-10-07T20:44:30.674Z,7.03
2022-10-07T20:49:28.816Z,6.97
2022-10-07T20:54:26.929Z,6.78
2022-10-07T20:59:25.328Z,6.74
2022-10-07T21:04:22.499Z,6.91
2022-10-07T21:09:20.208Z,7.09
2022-10-07T21:14:17.689Z,7.13
2022-10-07T21:19:15.044Z,7.11
2022-10-07T21:24:11.477Z,6.95
2022-10-07T21:29:08.413Z,6.97
2022-10-07T21:34:07.868Z,6.83
2022-10-07T21:39:05.674Z,6.65
2022-10-07T21:44:04.268Z,6.65
2022-10-07T21:49:00.816Z,6.62
2022-10-07T21:54:00.095Z,6.61
2022-10-07T21:58:57.865Z,6.61
2022-10-07T22:03:59.633Z,6.66
2022-10-07T22:08:56.582Z,6.72
2022-10-07T22:13:55.099Z,6.86
2022-10-07T22:18:53.687Z,6.95
2022-10-07T22:23:50.923Z,7.09
2022-10-07T22:28:47.506Z,7.22
2022-10-07T22:33:44.923Z,7.35
2022-10-07T22:38:41.277Z,7.46
2022-10-07T22:43:44.190Z,7.65
2022-10-07T22:48:43.127Z,7.86
2022-10-07T22:53:41.132Z,7.91
2022-10-07T22:58:39.146Z,7.98
2022-10-07T23:03:38.439Z,7.97
2022-10-07T23:08:36.480Z,8.09
2022-10-07T23:13:34.570Z,8.09
2022-10-07T23:18:31.365Z,8.02
2022-10-07T23:23:28.865Z,8.00
2022-10-07T23:28:26.188Z,7.84
2022-10-07T23:33:22.732Z,7.77
2022-10-07T23:38:19.067Z,7.61
2022-10-07T23:43:16.204Z,7.60
2022-10-07T23:48:14.939Z,7.69
2022-10-07T23:53:11.300Z,7.50
2022-10-07T23:58:08.267Z,7.48
